sensor_id;sensor_type;location;lat;lon;timestamp;P1;durP1;ratioP1;P2;durP2;ratioP2
20480;SDS011;10399;50.754;3.366;2023-07-29T00:01:58;3.72;;;2.00;;
20480;SDS011;10399;50.754;3.366;2023-07-29T00:04:26;7.13;;;1.95;;
20480;SDS011;10399;50.754;3.366;2023-07-29T00:06:53;3.20;;;1.90;;
20480;SDS011;10399;50.754;3.366;2023-07-29T00:09:20;5.35;;;1.95;;
20480;SDS011;10399;50.754;3.366;2023-07-29T00:11:47;3.47;;;1.90;;
20480;SDS011;10399;50.754;3.366;2023-07-29T00:14:14;3.47;;;2.20;;
20480;SDS011;10399;50.754;3.366;2023-07-29T00:16:41;5.00;;;2.17;;
20480;SDS011;10399;50.754;3.366;2023-07-29T00:19:09;3.22;;;2.13;;
20480;SDS011;10399;50.754;3.366;2023-07-29T00:21:36;5.93;;;2.55;;
20480;SDS011;10399;50.754;3.366;2023-07-29T00:24:04;3.97;;;2.53;;
20480;SDS011;10399;50.754;3.366;2023-07-29T00:26:31;4.80;;;2.30;;
20480;SDS011;10399;50.754;3.366;2023-07-29T00:28:59;3.83;;;2.00;;
20480;SDS011;10399;50.754;3.366;2023-07-29T00:31:26;3.83;;;2.60;;
20480;SDS011;10399;50.754;3.366;2023-07-29T00:33:53;3.35;;;2.10;;
20480;SDS011;10399;50.754;3.366;2023-07-29T00:36:21;3.38;;;2.25;;
20480;SDS011;10399;50.754;3.366;2023-07-29T00:38:48;2.72;;;2.03;;
20480;SDS011;10399;50.754;3.366;2023-07-29T00:41:17;5.82;;;1.90;;
20480;SDS011;10399;50.754;3.366;2023-07-29T00:43:44;4.50;;;2.13;;
20480;SDS011;10399;50.754;3.366;2023-07-29T00:46:11;3.47;;;2.33;;
20480;SDS011;10399;50.754;3.366;2023-07-29T00:48:39;5.15;;;2.55;;
20480;SDS011;10399;50.754;3.366;2023-07-29T00:51:06;2.42;;;1.95;;
20480;SDS011;10399;50.754;3.366;2023-07-29T00:53:34;3.63;;;2.30;;
20480;SDS011;10399;50.754;3.366;2023-07-29T00:56:01;3.90;;;2.13;;
20480;SDS011;10399;50.754;3.366;2023-07-29T00:58:28;2.90;;;2.00;;
20480;SDS011;10399;50.754;3.366;2023-07-29T01:00:56;4.38;;;2.17;;
20480;SDS011;10399;50.754;3.366;2023-07-29T01:03:23;3.08;;;2.03;;
20480;SDS011;10399;50.754;3.366;2023-07-29T01:08:33;4.70;;;2.10;;
20480;SDS011;10399;50.754;3.366;2023-07-29T01:17:32;3.92;;;2.03;;
20480;SDS011;10399;50.754;3.366;2023-07-29T01:20:13;5.30;;;2.65;;
20480;SDS011;10399;50.754;3.366;2023-07-29T01:22:42;3.95;;;2.40;;
20480;SDS011;10399;50.754;3.366;2023-07-29T01:25:10;3.63;;;2.25;;
20480;SDS011;10399;50.754;3.366;2023-07-29T01:27:37;3.28;;;2.35;;
20480;SDS011;10399;50.754;3.366;2023-07-29T01:30:05;5.30;;;2.50;;
20480;SDS011;10399;50.754;3.366;2023-07-29T01:38:18;4.53;;;2.63;;
20480;SDS011;10399;50.754;3.366;2023-07-29T01:40:52;5.18;;;2.70;;
20480;SDS011;10399;50.754;3.366;2023-07-29T01:43:20;5.97;;;2.75;;
20480;SDS011;10399;50.754;3.366;2023-07-29T01:45:49;5.60;;;3.00;;
20480;SDS011;10399;50.754;3.366;2023-07-29T01:48:17;6.72;;;3.20;;
20480;SDS011;10399;50.754;3.366;2023-07-29T01:50:44;5.22;;;3.13;;
20480;SDS011;10399;50.754;3.366;2023-07-29T01:53:11;5.20;;;3.08;;
20480;SDS011;10399;50.754;3.366;2023-07-29T01:55:39;3.50;;;2.78;;
20480;SDS011;10399;50.754;3.366;2023-07-29T01:58:06;6.38;;;2.70;;
20480;SDS011;10399;50.754;3.366;2023-07-29T02:00:33;6.28;;;2.80;;
20480;SDS011;10399;50.754;3.366;2023-07-29T02:03:01;3.67;;;2.38;;
20480;SDS011;10399;50.754;3.366;2023-07-29T02:05:28;7.15;;;2.50;;
20480;SDS011;10399;50.754;3.366;2023-07-29T02:07:56;5.05;;;2.55;;
20480;SDS011;10399;50.754;3.366;2023-07-29T02:10:23;4.38;;;2.28;;
20480;SDS011;10399;50.754;3.366;2023-07-29T02:12:50;4.80;;;2.42;;
20480;SDS011;10399;50.754;3.366;2023-07-29T02:15:18;4.05;;;2.30;;
20480;SDS011;10399;50.754;3.366;2023-07-29T02:17:45;4.22;;;2.38;;
20480;SDS011;10399;50.754;3.366;2023-07-29T02:20:12;4.35;;;2.92;;
20480;SDS011;10399;50.754;3.366;2023-07-29T02:22:39;4.80;;;2.97;;
20480;SDS011;10399;50.754;3.366;2023-07-29T02:25:07;4.57;;;3.08;;
20480;SDS011;10399;50.754;3.366;2023-07-29T02:27:34;4.13;;;2.83;;
20480;SDS011;10399;50.754;3.366;2023-07-29T02:30:04;5.72;;;3.17;;
20480;SDS011;10399;50.754;3.366;2023-07-29T02:32:31;4.70;;;2.70;;
20480;SDS011;10399;50.754;3.366;2023-07-29T02:34:58;5.53;;;2.90;;
20480;SDS011;10399;50.754;3.366;2023-07-29T02:37:26;4.68;;;3.00;;
20480;SDS011;10399;50.754;3.366;2023-07-29T02:39:53;8.55;;;2.83;;
20480;SDS011;10399;50.754;3.366;2023-07-29T02:42:20;6.47;;;3.28;;
20480;SDS011;10399;50.754;3.366;2023-07-29T02:44:48;6.05;;;2.80;;
20480;SDS011;10399;50.754;3.366;2023-07-29T02:47:16;4.07;;;3.03;;
20480;SDS011;10399;50.754;3.366;2023-07-29T02:49:43;5.50;;;3.20;;
20480;SDS011;10399;50.754;3.366;2023-07-29T02:52:10;5.20;;;2.97;;
20480;SDS011;10399;50.754;3.366;2023-07-29T02:54:37;8.10;;;3.38;;
20480;SDS011;10399;50.754;3.366;2023-07-29T02:57:05;5.13;;;2.47;;
20480;SDS011;10399;50.754;3.366;2023-07-29T02:59:32;5.85;;;2.80;;
20480;SDS011;10399;50.754;3.366;2023-07-29T03:01:59;6.63;;;2.78;;
20480;SDS011;10399;50.754;3.366;2023-07-29T03:04:26;4.00;;;2.67;;
20480;SDS011;10399;50.754;3.366;2023-07-29T03:06:53;6.20;;;3.10;;
20480;SDS011;10399;50.754;3.366;2023-07-29T03:09:21;5.97;;;3.13;;
20480;SDS011;10399;50.754;3.366;2023-07-29T03:11:48;6.22;;;2.88;;
20480;SDS011;10399;50.754;3.366;2023-07-29T03:14:15;3.95;;;2.97;;
20480;SDS011;10399;50.754;3.366;2023-07-29T03:16:42;13.02;;;3.20;;
20480;SDS011;10399;50.754;3.366;2023-07-29T03:19:09;3.95;;;2.80;;
20480;SDS011;10399;50.754;3.366;2023-07-29T03:21:37;4.28;;;2.65;;
20480;SDS011;10399;50.754;3.366;2023-07-29T03:24:04;4.38;;;2.90;;
20480;SDS011;10399;50.754;3.366;2023-07-29T03:26:33;3.88;;;2.78;;
20480;SDS011;10399;50.754;3.366;2023-07-29T03:29:01;6.50;;;3.20;;
20480;SDS011;10399;50.754;3.366;2023-07-29T03:31:28;4.55;;;2.90;;
20480;SDS011;10399;50.754;3.366;2023-07-29T03:33:56;3.97;;;2.47;;
20480;SDS011;10399;50.754;3.366;2023-07-29T03:36:24;3.85;;;2.90;;
20480;SDS011;10399;50.754;3.366;2023-07-29T03:38:52;7.00;;;3.10;;
20480;SDS011;10399;50.754;3.366;2023-07-29T03:41:19;5.72;;;3.20;;
20480;SDS011;10399;50.754;3.366;2023-07-29T03:43:46;5.53;;;2.95;;
20480;SDS011;10399;50.754;3.366;2023-07-29T03:46:13;7.07;;;2.85;;
20480;SDS011;10399;50.754;3.366;2023-07-29T03:48:44;6.15;;;3.00;;
20480;SDS011;10399;50.754;3.366;2023-07-29T03:51:11;7.40;;;3.10;;
20480;SDS011;10399;50.754;3.366;2023-07-29T03:53:38;4.68;;;3.13;;
20480;SDS011;10399;50.754;3.366;2023-07-29T03:56:05;9.93;;;3.15;;
20480;SDS011;10399;50.754;3.366;2023-07-29T03:58:34;6.70;;;2.70;;
20480;SDS011;10399;50.754;3.366;2023-07-29T04:01:01;6.38;;;3.05;;
20480;SDS011;10399;50.754;3.366;2023-07-29T04:03:29;7.93;;;3.08;;
20480;SDS011;10399;50.754;3.366;2023-07-29T04:05:56;4.00;;;2.70;;
20480;SDS011;10399;50.754;3.366;2023-07-29T04:08:23;5.15;;;3.10;;
20480;SDS011;10399;50.754;3.366;2023-07-29T04:10:51;7.50;;;2.78;;
20480;SDS011;10399;50.754;3.366;2023-07-29T04:13:18;5.10;;;2.70;;
20480;SDS011;10399;50.754;3.366;2023-07-29T04:15:45;5.25;;;2.67;;
20480;SDS011;10399;50.754;3.366;2023-07-29T04:18:13;4.07;;;2.67;;
20480;SDS011;10399;50.754;3.366;2023-07-29T04:20:40;7.05;;;2.90;;
20480;SDS011;10399;50.754;3.366;2023-07-29T04:23:07;7.28;;;2.83;;
20480;SDS011;10399;50.754;3.366;2023-07-29T04:25:34;5.32;;;2.80;;
20480;SDS011;10399;50.754;3.366;2023-07-29T04:28:01;5.85;;;2.88;;
20480;SDS011;10399;50.754;3.366;2023-07-29T04:30:29;8.00;;;2.83;;
20480;SDS011;10399;50.754;3.366;2023-07-29T04:32:57;9.13;;;2.90;;
20480;SDS011;10399;50.754;3.366;2023-07-29T04:35:24;5.82;;;2.25;;
20480;SDS011;10399;50.754;3.366;2023-07-29T04:37:52;7.10;;;2.80;;
20480;SDS011;10399;50.754;3.366;2023-07-29T04:40:19;8.70;;;2.53;;
20480;SDS011;10399;50.754;3.366;2023-07-29T04:42:46;5.10;;;2.90;;
20480;SDS011;10399;50.754;3.366;2023-07-29T04:45:13;7.38;;;2.72;;
20480;SDS011;10399;50.754;3.366;2023-07-29T04:47:41;4.88;;;2.85;;
20480;SDS011;10399;50.754;3.366;2023-07-29T04:50:08;3.92;;;2.65;;
20480;SDS011;10399;50.754;3.366;2023-07-29T04:52:38;4.57;;;2.78;;
20480;SDS011;10399;50.754;3.366;2023-07-29T04:55:05;6.05;;;2.83;;
20480;SDS011;10399;50.754;3.366;2023-07-29T04:57:33;3.97;;;2.78;;
20480;SDS011;10399;50.754;3.366;2023-07-29T05:00:00;6.15;;;2.90;;
20480;SDS011;10399;50.754;3.366;2023-07-29T05:02:29;6.85;;;2.75;;
20480;SDS011;10399;50.754;3.366;2023-07-29T05:04:57;5.68;;;3.22;;
20480;SDS011;10399;50.754;3.366;2023-07-29T05:07:25;5.70;;;3.08;;
20480;SDS011;10399;50.754;3.366;2023-07-29T05:09:52;6.38;;;2.70;;
20480;SDS011;10399;50.754;3.366;2023-07-29T05:12:19;5.18;;;2.78;;
20480;SDS011;10399;50.754;3.366;2023-07-29T05:14:46;6.25;;;3.00;;
20480;SDS011;10399;50.754;3.366;2023-07-29T05:17:13;5.85;;;2.75;;
20480;SDS011;10399;50.754;3.366;2023-07-29T05:19:40;4.78;;;2.78;;
20480;SDS011;10399;50.754;3.366;2023-07-29T05:22:07;5.85;;;2.78;;
20480;SDS011;10399;50.754;3.366;2023-07-29T05:24:37;4.22;;;2.42;;
20480;SDS011;10399;50.754;3.366;2023-07-29T05:27:04;3.45;;;2.45;;
20480;SDS011;10399;50.754;3.366;2023-07-29T05:29:32;3.67;;;2.47;;
20480;SDS011;10399;50.754;3.366;2023-07-29T05:31:59;4.80;;;2.67;;
20480;SDS011;10399;50.754;3.366;2023-07-29T05:34:26;4.43;;;2.40;;
20480;SDS011;10399;50.754;3.366;2023-07-29T05:36:53;4.65;;;2.20;;
20480;SDS011;10399;50.754;3.366;2023-07-29T05:39:20;3.60;;;2.63;;
20480;SDS011;10399;50.754;3.366;2023-07-29T05:41:47;4.88;;;2.40;;
20480;SDS011;10399;50.754;3.366;2023-07-29T05:44:14;5.47;;;2.13;;
20480;SDS011;10399;50.754;3.366;2023-07-29T05:46:41;4.55;;;2.35;;
20480;SDS011;10399;50.754;3.366;2023-07-29T05:49:08;2.90;;;2.05;;
20480;SDS011;10399;50.754;3.366;2023-07-29T05:51:36;6.47;;;2.10;;
20480;SDS011;10399;50.754;3.366;2023-07-29T05:54:03;3.05;;;2.28;;
20480;SDS011;10399;50.754;3.366;2023-07-29T05:56:30;4.00;;;2.50;;
20480;SDS011;10399;50.754;3.366;2023-07-29T05:58:57;6.28;;;2.25;;
20480;SDS011;10399;50.754;3.366;2023-07-29T06:01:25;4.22;;;2.20;;
20480;SDS011;10399;50.754;3.366;2023-07-29T06:03:53;6.25;;;3.30;;
20480;SDS011;10399;50.754;3.366;2023-07-29T06:06:20;3.40;;;2.42;;
20480;SDS011;10399;50.754;3.366;2023-07-29T06:08:49;3.85;;;2.38;;
20480;SDS011;10399;50.754;3.366;2023-07-29T06:11:17;3.40;;;2.70;;
20480;SDS011;10399;50.754;3.366;2023-07-29T06:13:45;6.03;;;2.80;;
20480;SDS011;10399;50.754;3.366;2023-07-29T06:16:13;4.57;;;2.63;;
20480;SDS011;10399;50.754;3.366;2023-07-29T06:18:41;4.35;;;2.70;;
20480;SDS011;10399;50.754;3.366;2023-07-29T06:21:08;6.50;;;2.58;;
20480;SDS011;10399;50.754;3.366;2023-07-29T06:23:38;3.63;;;2.53;;
20480;SDS011;10399;50.754;3.366;2023-07-29T06:26:05;5.57;;;2.53;;
20480;SDS011;10399;50.754;3.366;2023-07-29T06:28:33;5.13;;;2.55;;
20480;SDS011;10399;50.754;3.366;2023-07-29T06:31:01;7.97;;;2.50;;
20480;SDS011;10399;50.754;3.366;2023-07-29T06:33:28;5.28;;;2.05;;
20480;SDS011;10399;50.754;3.366;2023-07-29T06:35:55;3.97;;;2.30;;
20480;SDS011;10399;50.754;3.366;2023-07-29T06:38:22;4.60;;;2.20;;
20480;SDS011;10399;50.754;3.366;2023-07-29T06:40:50;5.88;;;2.72;;
20480;SDS011;10399;50.754;3.366;2023-07-29T06:43:17;4.40;;;2.42;;
20480;SDS011;10399;50.754;3.366;2023-07-29T06:45:44;6.18;;;2.70;;
20480;SDS011;10399;50.754;3.366;2023-07-29T06:48:11;4.32;;;2.20;;
20480;SDS011;10399;50.754;3.366;2023-07-29T06:50:38;5.63;;;2.20;;
20480;SDS011;10399;50.754;3.366;2023-07-29T06:53:06;2.95;;;2.25;;
20480;SDS011;10399;50.754;3.366;2023-07-29T06:55:33;4.60;;;2.38;;
20480;SDS011;10399;50.754;3.366;2023-07-29T06:58:00;4.97;;;2.05;;
20480;SDS011;10399;50.754;3.366;2023-07-29T07:00:28;5.80;;;1.80;;
20480;SDS011;10399;50.754;3.366;2023-07-29T07:02:55;7.80;;;2.20;;
20480;SDS011;10399;50.754;3.366;2023-07-29T07:05:23;4.45;;;1.92;;
20480;SDS011;10399;50.754;3.366;2023-07-29T07:07:50;2.97;;;1.88;;
20480;SDS011;10399;50.754;3.366;2023-07-29T07:10:18;2.95;;;2.20;;
20480;SDS011;10399;50.754;3.366;2023-07-29T07:12:45;3.92;;;1.75;;
20480;SDS011;10399;50.754;3.366;2023-07-29T07:15:13;4.32;;;1.95;;
20480;SDS011;10399;50.754;3.366;2023-07-29T07:17:39;1.80;;;1.50;;
20480;SDS011;10399;50.754;3.366;2023-07-29T07:20:07;2.45;;;1.67;;
20480;SDS011;10399;50.754;3.366;2023-07-29T07:22:35;1.67;;;1.48;;
20480;SDS011;10399;50.754;3.366;2023-07-29T07:25:02;2.47;;;1.70;;
20480;SDS011;10399;50.754;3.366;2023-07-29T07:27:33;4.13;;;1.55;;
20480;SDS011;10399;50.754;3.366;2023-07-29T07:30:01;3.15;;;1.55;;
20480;SDS011;10399;50.754;3.366;2023-07-29T07:32:28;3.53;;;1.50;;
20480;SDS011;10399;50.754;3.366;2023-07-29T07:34:55;2.15;;;1.40;;
20480;SDS011;10399;50.754;3.366;2023-07-29T07:37:23;2.55;;;1.45;;
20480;SDS011;10399;50.754;3.366;2023-07-29T07:39:50;3.03;;;1.70;;
20480;SDS011;10399;50.754;3.366;2023-07-29T07:42:16;3.75;;;1.60;;
20480;SDS011;10399;50.754;3.366;2023-07-29T07:44:45;2.58;;;1.45;;
20480;SDS011;10399;50.754;3.366;2023-07-29T07:47:13;2.75;;;1.60;;
20480;SDS011;10399;50.754;3.366;2023-07-29T07:49:40;3.85;;;1.40;;
20480;SDS011;10399;50.754;3.366;2023-07-29T07:52:07;4.35;;;1.73;;
20480;SDS011;10399;50.754;3.366;2023-07-29T07:54:34;2.80;;;1.45;;
20480;SDS011;10399;50.754;3.366;2023-07-29T07:57:01;4.32;;;1.70;;
20480;SDS011;10399;50.754;3.366;2023-07-29T07:59:28;3.38;;;1.55;;
20480;SDS011;10399;50.754;3.366;2023-07-29T08:01:55;5.18;;;1.80;;
20480;SDS011;10399;50.754;3.366;2023-07-29T08:04:23;3.50;;;1.30;;
20480;SDS011;10399;50.754;3.366;2023-07-29T08:06:50;2.85;;;1.55;;
20480;SDS011;10399;50.754;3.366;2023-07-29T08:09:20;4.38;;;2.05;;
20480;SDS011;10399;50.754;3.366;2023-07-29T08:11:49;2.17;;;1.38;;
20480;SDS011;10399;50.754;3.366;2023-07-29T08:14:16;4.03;;;1.70;;
20480;SDS011;10399;50.754;3.366;2023-07-29T08:16:43;1.75;;;1.40;;
20480;SDS011;10399;50.754;3.366;2023-07-29T08:19:10;4.85;;;1.73;;
20480;SDS011;10399;50.754;3.366;2023-07-29T08:21:37;3.08;;;1.58;;
20480;SDS011;10399;50.754;3.366;2023-07-29T08:24:04;4.28;;;1.80;;
20480;SDS011;10399;50.754;3.366;2023-07-29T08:26:33;2.30;;;1.70;;
20480;SDS011;10399;50.754;3.366;2023-07-29T08:29:01;2.63;;;1.77;;
20480;SDS011;10399;50.754;3.366;2023-07-29T08:31:29;2.38;;;1.52;;
20480;SDS011;10399;50.754;3.366;2023-07-29T08:34:00;3.35;;;1.60;;
20480;SDS011;10399;50.754;3.366;2023-07-29T08:36:27;4.65;;;1.83;;
20480;SDS011;10399;50.754;3.366;2023-07-29T08:38:55;3.05;;;1.67;;
20480;SDS011;10399;50.754;3.366;2023-07-29T08:41:26;4.50;;;2.17;;
20480;SDS011;10399;50.754;3.366;2023-07-29T08:46:53;2.42;;;1.80;;
20480;SDS011;10399;50.754;3.366;2023-07-29T08:49:21;2.47;;;1.80;;
20480;SDS011;10399;50.754;3.366;2023-07-29T08:51:51;6.22;;;2.13;;
20480;SDS011;10399;50.754;3.366;2023-07-29T08:54:20;4.78;;;1.95;;
20480;SDS011;10399;50.754;3.366;2023-07-29T08:56:49;5.15;;;2.08;;
20480;SDS011;10399;50.754;3.366;2023-07-29T08:59:17;6.07;;;1.92;;
20480;SDS011;10399;50.754;3.366;2023-07-29T09:01:45;3.80;;;1.98;;
20480;SDS011;10399;50.754;3.366;2023-07-29T09:04:13;3.42;;;1.65;;
20480;SDS011;10399;50.754;3.366;2023-07-29T09:06:43;3.17;;;1.70;;
20480;SDS011;10399;50.754;3.366;2023-07-29T09:09:11;4.22;;;1.83;;
20480;SDS011;10399;50.754;3.366;2023-07-29T09:11:39;6.13;;;2.10;;
20480;SDS011;10399;50.754;3.366;2023-07-29T09:14:06;6.63;;;1.98;;
20480;SDS011;10399;50.754;3.366;2023-07-29T09:16:33;5.10;;;2.03;;
20480;SDS011;10399;50.754;3.366;2023-07-29T09:19:02;6.88;;;2.30;;
20480;SDS011;10399;50.754;3.366;2023-07-29T09:21:31;2.65;;;2.03;;
20480;SDS011;10399;50.754;3.366;2023-07-29T09:24:02;3.13;;;1.85;;
20480;SDS011;10399;50.754;3.366;2023-07-29T09:26:34;4.68;;;2.00;;
20480;SDS011;10399;50.754;3.366;2023-07-29T09:29:03;2.42;;;1.88;;
20480;SDS011;10399;50.754;3.366;2023-07-29T09:31:31;2.60;;;2.30;;
20480;SDS011;10399;50.754;3.366;2023-07-29T09:33:59;2.28;;;2.03;;
20480;SDS011;10399;50.754;3.366;2023-07-29T09:36:31;3.00;;;1.92;;
20480;SDS011;10399;50.754;3.366;2023-07-29T09:39:00;2.33;;;1.85;;
20480;SDS011;10399;50.754;3.366;2023-07-29T09:41:29;9.68;;;1.90;;
20480;SDS011;10399;50.754;3.366;2023-07-29T09:43:58;3.03;;;1.80;;
20480;SDS011;10399;50.754;3.366;2023-07-29T09:46:34;5.43;;;1.75;;
20480;SDS011;10399;50.754;3.366;2023-07-29T09:49:05;4.03;;;1.60;;
20480;SDS011;10399;50.754;3.366;2023-07-29T09:51:37;3.65;;;1.92;;
20480;SDS011;10399;50.754;3.366;2023-07-29T09:54:06;2.03;;;1.50;;
20480;SDS011;10399;50.754;3.366;2023-07-29T09:56:34;2.20;;;1.80;;
20480;SDS011;10399;50.754;3.366;2023-07-29T09:59:08;2.03;;;1.60;;
20480;SDS011;10399;50.754;3.366;2023-07-29T10:01:36;3.10;;;1.70;;
20480;SDS011;10399;50.754;3.366;2023-07-29T10:04:04;3.17;;;1.75;;
20480;SDS011;10399;50.754;3.366;2023-07-29T10:06:34;2.83;;;1.77;;
20480;SDS011;10399;50.754;3.366;2023-07-29T10:09:03;2.45;;;2.00;;
20480;SDS011;10399;50.754;3.366;2023-07-29T10:11:31;4.10;;;1.88;;
20480;SDS011;10399;50.754;3.366;2023-07-29T10:14:01;3.53;;;1.70;;
20480;SDS011;10399;50.754;3.366;2023-07-29T10:16:36;2.67;;;1.73;;
20480;SDS011;10399;50.754;3.366;2023-07-29T10:19:05;2.15;;;1.90;;
20480;SDS011;10399;50.754;3.366;2023-07-29T10:21:35;2.45;;;2.05;;
20480;SDS011;10399;50.754;3.366;2023-07-29T10:24:05;3.30;;;1.90;;
20480;SDS011;10399;50.754;3.366;2023-07-29T10:26:39;3.05;;;1.67;;
20480;SDS011;10399;50.754;3.366;2023-07-29T10:29:10;3.97;;;1.77;;
20480;SDS011;10399;50.754;3.366;2023-07-29T10:31:40;1.90;;;1.65;;
20480;SDS011;10399;50.754;3.366;2023-07-29T10:34:10;2.38;;;1.42;;
20480;SDS011;10399;50.754;3.366;2023-07-29T10:36:39;2.80;;;1.88;;
20480;SDS011;10399;50.754;3.366;2023-07-29T10:39:08;2.22;;;1.67;;
20480;SDS011;10399;50.754;3.366;2023-07-29T10:41:56;3.67;;;1.60;;
20480;SDS011;10399;50.754;3.366;2023-07-29T10:49:48;2.17;;;1.75;;
20480;SDS011;10399;50.754;3.366;2023-07-29T10:52:43;2.05;;;1.85;;
20480;SDS011;10399;50.754;3.366;2023-07-29T10:55:33;2.13;;;1.55;;
20480;SDS011;10399;50.754;3.366;2023-07-29T10:58:07;2.90;;;1.90;;
20480;SDS011;10399;50.754;3.366;2023-07-29T11:00:44;5.53;;;1.83;;
20480;SDS011;10399;50.754;3.366;2023-07-29T11:03:13;2.85;;;1.42;;
20480;SDS011;10399;50.754;3.366;2023-07-29T11:08:18;2.85;;;1.80;;
20480;SDS011;10399;50.754;3.366;2023-07-29T11:13:35;1.92;;;1.73;;
20480;SDS011;10399;50.754;3.366;2023-07-29T11:16:04;1.60;;;1.50;;
20480;SDS011;10399;50.754;3.366;2023-07-29T11:18:32;4.30;;;1.77;;
20480;SDS011;10399;50.754;3.366;2023-07-29T11:21:02;2.20;;;1.70;;
20480;SDS011;10399;50.754;3.366;2023-07-29T11:23:31;3.42;;;1.88;;
20480;SDS011;10399;50.754;3.366;2023-07-29T11:26:01;5.95;;;1.90;;
20480;SDS011;10399;50.754;3.366;2023-07-29T11:28:29;1.77;;;1.52;;
20480;SDS011;10399;50.754;3.366;2023-07-29T11:30:58;2.15;;;1.30;;
20480;SDS011;10399;50.754;3.366;2023-07-29T11:33:25;2.10;;;1.40;;
20480;SDS011;10399;50.754;3.366;2023-07-29T11:35:55;2.75;;;1.52;;
20480;SDS011;10399;50.754;3.366;2023-07-29T11:38:22;3.28;;;1.17;;
20480;SDS011;10399;50.754;3.366;2023-07-29T11:41:09;2.35;;;1.48;;
20480;SDS011;10399;50.754;3.366;2023-07-29T11:43:36;1.85;;;1.13;;
20480;SDS011;10399;50.754;3.366;2023-07-29T11:46:03;1.08;;;0.98;;
20480;SDS011;10399;50.754;3.366;2023-07-29T11:48:31;2.03;;;1.10;;
20480;SDS011;10399;50.754;3.366;2023-07-29T11:51:00;1.55;;;1.00;;
20480;SDS011;10399;50.754;3.366;2023-07-29T11:53:30;3.67;;;1.23;;
20480;SDS011;10399;50.754;3.366;2023-07-29T11:55:58;3.50;;;1.27;;
20480;SDS011;10399;50.754;3.366;2023-07-29T11:58:25;3.47;;;1.58;;
20480;SDS011;10399;50.754;3.366;2023-07-29T12:00:53;1.60;;;1.50;;
20480;SDS011;10399;50.754;3.366;2023-07-29T12:03:20;1.70;;;1.58;;
20480;SDS011;10399;50.754;3.366;2023-07-29T12:05:49;3.45;;;1.45;;
20480;SDS011;10399;50.754;3.366;2023-07-29T12:08:17;5.88;;;1.70;;
20480;SDS011;10399;50.754;3.366;2023-07-29T12:10:44;1.65;;;1.30;;
20480;SDS011;10399;50.754;3.366;2023-07-29T12:13:12;1.83;;;1.40;;
20480;SDS011;10399;50.754;3.366;2023-07-29T12:15:40;1.50;;;1.20;;
20480;SDS011;10399;50.754;3.366;2023-07-29T12:18:07;1.48;;;1.30;;
20480;SDS011;10399;50.754;3.366;2023-07-29T12:20:34;1.85;;;1.40;;
20480;SDS011;10399;50.754;3.366;2023-07-29T12:23:01;3.38;;;1.58;;
20480;SDS011;10399;50.754;3.366;2023-07-29T12:25:29;2.15;;;1.38;;
20480;SDS011;10399;50.754;3.366;2023-07-29T12:28:05;1.20;;;1.10;;
20480;SDS011;10399;50.754;3.366;2023-07-29T12:30:34;2.28;;;1.27;;
20480;SDS011;10399;50.754;3.366;2023-07-29T12:33:07;1.77;;;1.35;;
20480;SDS011;10399;50.754;3.366;2023-07-29T12:35:37;1.83;;;1.50;;
20480;SDS011;10399;50.754;3.366;2023-07-29T12:38:05;1.30;;;1.20;;
20480;SDS011;10399;50.754;3.366;2023-07-29T12:40:37;1.27;;;1.17;;
20480;SDS011;10399;50.754;3.366;2023-07-29T12:43:06;4.82;;;1.20;;
20480;SDS011;10399;50.754;3.366;2023-07-29T12:45:36;1.30;;;1.20;;
20480;SDS011;10399;50.754;3.366;2023-07-29T12:48:06;1.60;;;1.15;;
20480;SDS011;10399;50.754;3.366;2023-07-29T12:50:37;1.65;;;1.20;;
20480;SDS011;10399;50.754;3.366;2023-07-29T12:53:06;2.30;;;1.40;;
20480;SDS011;10399;50.754;3.366;2023-07-29T12:55:34;1.25;;;1.15;;
20480;SDS011;10399;50.754;3.366;2023-07-29T12:58:01;2.85;;;1.10;;
20480;SDS011;10399;50.754;3.366;2023-07-29T13:00:29;3.17;;;1.45;;
20480;SDS011;10399;50.754;3.366;2023-07-29T13:02:57;1.40;;;1.05;;
20480;SDS011;10399;50.754;3.366;2023-07-29T13:05:25;1.42;;;1.23;;
20480;SDS011;10399;50.754;3.366;2023-07-29T13:07:52;1.90;;;1.45;;
20480;SDS011;10399;50.754;3.366;2023-07-29T13:10:19;5.85;;;1.83;;
20480;SDS011;10399;50.754;3.366;2023-07-29T13:12:47;3.33;;;1.58;;
20480;SDS011;10399;50.754;3.366;2023-07-29T13:15:18;2.67;;;2.00;;
20480;SDS011;10399;50.754;3.366;2023-07-29T13:17:45;2.78;;;1.60;;
20480;SDS011;10399;50.754;3.366;2023-07-29T13:20:13;2.35;;;1.92;;
20480;SDS011;10399;50.754;3.366;2023-07-29T13:22:40;1.70;;;1.60;;
20480;SDS011;10399;50.754;3.366;2023-07-29T13:25:09;3.15;;;1.40;;
20480;SDS011;10399;50.754;3.366;2023-07-29T13:27:36;1.63;;;1.38;;
20480;SDS011;10399;50.754;3.366;2023-07-29T13:30:04;2.65;;;1.60;;
20480;SDS011;10399;50.754;3.366;2023-07-29T13:32:32;11.48;;;1.92;;
20480;SDS011;10399;50.754;3.366;2023-07-29T13:34:59;1.50;;;1.40;;
20480;SDS011;10399;50.754;3.366;2023-07-29T13:37:26;2.33;;;1.40;;
20480;SDS011;10399;50.754;3.366;2023-07-29T13:39:53;2.25;;;1.70;;
20480;SDS011;10399;50.754;3.366;2023-07-29T13:42:21;1.90;;;1.70;;
20480;SDS011;10399;50.754;3.366;2023-07-29T13:44:48;1.90;;;1.55;;
20480;SDS011;10399;50.754;3.366;2023-07-29T13:47:15;2.08;;;1.52;;
20480;SDS011;10399;50.754;3.366;2023-07-29T13:49:43;2.10;;;1.00;;
20480;SDS011;10399;50.754;3.366;2023-07-29T13:52:11;1.45;;;0.80;;
20480;SDS011;10399;50.754;3.366;2023-07-29T13:54:38;1.60;;;0.80;;
20480;SDS011;10399;50.754;3.366;2023-07-29T13:57:06;1.13;;;0.75;;
20480;SDS011;10399;50.754;3.366;2023-07-29T13:59:33;0.60;;;0.52;;
20480;SDS011;10399;50.754;3.366;2023-07-29T14:02:00;1.50;;;0.90;;
20480;SDS011;10399;50.754;3.366;2023-07-29T14:04:27;0.80;;;0.60;;
20480;SDS011;10399;50.754;3.366;2023-07-29T14:06:56;1.67;;;1.02;;
20480;SDS011;10399;50.754;3.366;2023-07-29T14:09:29;1.80;;;0.80;;
20480;SDS011;10399;50.754;3.366;2023-07-29T14:11:56;1.50;;;0.80;;
20480;SDS011;10399;50.754;3.366;2023-07-29T14:14:24;1.50;;;0.90;;
20480;SDS011;10399;50.754;3.366;2023-07-29T14:16:51;1.50;;;0.77;;
20480;SDS011;10399;50.754;3.366;2023-07-29T14:19:19;1.15;;;0.80;;
20480;SDS011;10399;50.754;3.366;2023-07-29T14:21:47;0.88;;;0.57;;
20480;SDS011;10399;50.754;3.366;2023-07-29T14:24:15;0.70;;;0.70;;
20480;SDS011;10399;50.754;3.366;2023-07-29T14:26:43;1.75;;;0.68;;
20480;SDS011;10399;50.754;3.366;2023-07-29T14:29:10;1.05;;;0.82;;
20480;SDS011;10399;50.754;3.366;2023-07-29T14:31:38;1.33;;;0.82;;
20480;SDS011;10399;50.754;3.366;2023-07-29T14:34:05;1.38;;;0.60;;
20480;SDS011;10399;50.754;3.366;2023-07-29T14:36:33;0.82;;;0.70;;
20480;SDS011;10399;50.754;3.366;2023-07-29T14:39:01;0.95;;;0.88;;
20480;SDS011;10399;50.754;3.366;2023-07-29T14:41:29;2.20;;;1.20;;
20480;SDS011;10399;50.754;3.366;2023-07-29T14:43:57;1.58;;;0.70;;
20480;SDS011;10399;50.754;3.366;2023-07-29T14:46:25;1.77;;;1.02;;
20480;SDS011;10399;50.754;3.366;2023-07-29T14:48:53;4.15;;;1.15;;
20480;SDS011;10399;50.754;3.366;2023-07-29T14:51:20;1.58;;;1.00;;
20480;SDS011;10399;50.754;3.366;2023-07-29T14:53:49;6.72;;;1.30;;
20480;SDS011;10399;50.754;3.366;2023-07-29T14:56:19;2.13;;;1.33;;
20480;SDS011;10399;50.754;3.366;2023-07-29T14:58:49;3.17;;;1.08;;
20480;SDS011;10399;50.754;3.366;2023-07-29T15:01:17;2.35;;;1.23;;
20480;SDS011;10399;50.754;3.366;2023-07-29T15:03:45;3.47;;;1.52;;
20480;SDS011;10399;50.754;3.366;2023-07-29T15:06:12;5.07;;;1.30;;
20480;SDS011;10399;50.754;3.366;2023-07-29T15:08:40;2.47;;;1.50;;
20480;SDS011;10399;50.754;3.366;2023-07-29T15:11:06;4.03;;;1.60;;
20480;SDS011;10399;50.754;3.366;2023-07-29T15:13:34;6.88;;;1.30;;
20480;SDS011;10399;50.754;3.366;2023-07-29T15:16:01;4.25;;;1.73;;
20480;SDS011;10399;50.754;3.366;2023-07-29T15:18:28;6.50;;;1.73;;
20480;SDS011;10399;50.754;3.366;2023-07-29T15:20:56;6.30;;;1.67;;
20480;SDS011;10399;50.754;3.366;2023-07-29T15:23:24;4.15;;;1.58;;